createdAt,value
2023-02-22T00:02:22.577Z,98024.97
2023-02-22T00:04:49.880Z,98029.50
2023-02-22T00:07:17.472Z,98027.31
2023-02-22T00:09:44.687Z,98028.16
2023-02-22T00:12:12.316Z,98022.69
2023-02-22T00:14:40.452Z,98023.16
2023-02-22T00:17:08.053Z,98021.41
2023-02-22T00:19:35.404Z,98013.88
2023-02-22T00:22:03.142Z,98015.63
2023-02-22T00:24:32.843Z,98021.84
2023-02-22T00:27:00.396Z,98027.38
2023-02-22T00:29:28.684Z,98027.38
2023-02-22T00:31:56.399Z,98022.78
2023-02-22T00:34:24.347Z,98029.31
2023-02-22T00:36:52.070Z,98034.50
2023-02-22T00:39:19.416Z,98034.78
2023-02-22T00:41:47.205Z,98030.16
2023-02-22T00:44:14.785Z,98030.66
2023-02-22T00:46:42.457Z,98031.91
2023-02-22T00:49:09.745Z,98038.97
2023-02-22T00:51:37.578Z,98028.56
2023-02-22T00:54:05.544Z,98026.16
2023-02-22T00:56:35.186Z,98034.88
2023-02-22T00:59:03.189Z,98025.41
2023-02-22T01:01:31.490Z,98027.09
2023-02-22T01:03:59.262Z,98035.94
2023-02-22T01:06:27.162Z,98030.75
2023-02-22T01:08:54.448Z,98033.09
2023-02-22T01:11:22.473Z,98028.75
2023-02-22T01:13:49.868Z,98020.72
2023-02-22T01:16:17.559Z,98024.06
2023-02-22T01:18:44.942Z,98029.16
2023-02-22T01:21:12.648Z,98026.56
2023-02-22T01:23:39.901Z,98031.66
2023-02-22T01:26:07.470Z,98030.66
2023-02-22T01:28:35.256Z,98030.66
2023-02-22T01:31:03.331Z,98026.66
2023-02-22T01:33:31.823Z,98020.88
2023-02-22T01:36:00.268Z,98020.13
2023-02-22T01:38:27.780Z,98015.19
2023-02-22T01:40:55.558Z,98021.53
2023-02-22T01:43:25.897Z,98024.88
2023-02-22T01:46:25.031Z,98026.81
2023-02-22T01:48:57.284Z,98024.13
2023-02-22T01:51:37.631Z,98021.53
2023-02-22T01:54:33.579Z,98028.56
2023-02-22T01:57:11.390Z,98023.53
2023-02-22T01:59:49.044Z,98025.38
2023-02-22T02:02:19.077Z,98028.88
2023-02-22T02:04:46.696Z,98017.59
2023-02-22T02:07:18.722Z,98023.69
2023-02-22T02:10:02.850Z,98027.13
2023-02-22T02:12:35.949Z,98019.34
2023-02-22T02:15:29.067Z,98016.19
2023-02-22T02:18:02.518Z,98015.09
2023-02-22T02:21:08.855Z,98021.28
2023-02-22T02:24:19.276Z,98026.28
2023-02-22T02:27:23.995Z,98023.69
2023-02-22T02:30:06.449Z,98031.31
2023-02-22T02:32:59.948Z,98030.38
2023-02-22T02:36:00.607Z,98032.22
2023-02-22T02:38:59.440Z,98025.19
2023-02-22T02:41:41.926Z,98032.75
2023-02-22T02:44:22.818Z,98029.91
2023-02-22T02:47:14.491Z,98024.56
2023-02-22T02:49:58.222Z,98034.25
2023-02-22T02:52:29.308Z,98030.81
2023-02-22T02:54:58.228Z,98028.41
2023-02-22T02:57:25.951Z,98032.47
2023-02-22T02:59:53.305Z,98028.06
2023-02-22T03:02:35.577Z,98029.84
2023-02-22T03:05:31.916Z,98031.25
2023-02-22T03:08:21.118Z,98038.16
2023-02-22T03:11:21.523Z,98036.06
2023-02-22T03:14:22.197Z,98036.94
2023-02-22T03:17:47.908Z,98030.81
2023-02-22T03:20:33.264Z,98034.25
2023-02-22T03:23:28.849Z,98034.38
2023-02-22T03:26:12.235Z,98031.97
2023-02-22T03:28:46.614Z,98030.47
2023-02-22T03:31:33.137Z,98034.97
2023-02-22T03:34:08.942Z,98031.78
2023-02-22T03:36:57.879Z,98040.53
2023-02-22T03:39:31.308Z,98039.78
2023-02-22T03:42:12.092Z,98049.41
2023-02-22T03:44:42.975Z,98045.72
2023-02-22T03:47:18.642Z,98047.66
2023-02-22T03:50:07.579Z,98053.59
2023-02-22T03:52:36.607Z,98053.38
2023-02-22T03:55:11.266Z,98052.59
2023-02-22T03:57:46.915Z,98048.31
2023-02-22T04:00:20.123Z,98056.78
2023-02-22T04:02:47.873Z,98049.59
2023-02-22T04:05:20.473Z,98057.28
2023-02-22T04:07:48.309Z,98054.69
2023-02-22T04:10:17.062Z,98046.34
2023-02-22T04:12:44.804Z,98054.19
2023-02-22T04:15:20.226Z,98048.22
2023-02-22T04:17:48.046Z,98052.75
2023-02-22T04:20:20.053Z,98046.19
2023-02-22T04:22:47.680Z,98051.56
2023-02-22T04:25:15.690Z,98047.59
2023-02-22T04:27:43.237Z,98043.25
2023-02-22T04:30:12.269Z,98045.84
2023-02-22T04:32:40.200Z,98051.56
2023-02-22T04:35:08.129Z,98047.81
2023-02-22T04:37:35.981Z,98044.00
2023-02-22T04:40:07.962Z,98041.34
2023-02-22T04:42:37.262Z,98046.59
2023-02-22T04:45:08.517Z,98041.41
2023-02-22T04:47:37.702Z,98039.06
2023-02-22T04:50:09.337Z,98043.34
2023-02-22T04:52:37.096Z,98042.31
2023-02-22T04:55:05.308Z,98050.81
2023-02-22T04:57:33.275Z,98043.34
2023-02-22T05:00:00.550Z,98042.50
2023-02-22T05:02:28.760Z,98047.50
2023-02-22T05:04:56.136Z,98046.53
2023-02-22T05:07:23.779Z,98051.84
2023-02-22T05:09:51.126Z,98049.34
2023-02-22T05:12:18.800Z,98039.63
2023-02-22T05:14:46.070Z,98049.28
2023-02-22T05:17:13.918Z,98044.47
2023-02-22T05:19:42.144Z,98042.88
2023-02-22T05:22:09.712Z,98044.69
2023-02-22T05:24:37.281Z,98045.78
2023-02-22T05:27:04.857Z,98046.38
2023-02-22T05:29:32.519Z,98055.91
2023-02-22T05:32:00.312Z,98056.47
2023-02-22T05:34:27.662Z,98061.41
2023-02-22T05:36:55.241Z,98056.00
2023-02-22T05:39:22.563Z,98058.69
2023-02-22T05:41:50.510Z,98058.44
2023-02-22T05:44:17.950Z,98053.59
2023-02-22T05:46:45.616Z,98058.66
2023-02-22T05:49:12.973Z,98057.03
2023-02-22T05:51:40.571Z,98061.00
2023-02-22T05:54:08.291Z,98060.84
2023-02-22T05:56:36.668Z,98061.94
2023-02-22T05:59:04.054Z,98068.47
2023-02-22T06:01:31.669Z,98078.22
2023-02-22T06:03:58.951Z,98070.91
2023-02-22T06:06:26.495Z,98072.09
2023-02-22T06:08:53.800Z,98075.13
2023-02-22T06:11:21.449Z,98077.16
2023-02-22T06:13:53.594Z,98082.78
2023-02-22T06:16:22.597Z,98078.97
2023-02-22T06:18:50.384Z,98091.22
2023-02-22T06:21:18.467Z,98090.88
2023-02-22T06:23:45.850Z,98100.84
2023-02-22T06:26:17.825Z,98094.91
2023-02-22T06:28:46.880Z,98102.69
2023-02-22T06:31:14.762Z,98104.97
2023-02-22T06:33:42.128Z,98107.47
2023-02-22T06:36:10.741Z,98105.63
2023-02-22T06:38:38.091Z,98119.25
2023-02-22T06:41:05.857Z,98116.66
2023-02-22T06:43:33.086Z,98113.97
2023-02-22T06:46:00.795Z,98124.56
2023-02-22T06:48:28.198Z,98123.41
2023-02-22T06:50:55.785Z,98130.91
2023-02-22T06:53:23.235Z,98127.06
2023-02-22T06:55:55.104Z,98129.41
2023-02-22T06:58:22.600Z,98146.16
2023-02-22T07:00:50.258Z,98148.50
2023-02-22T07:03:17.621Z,98144.66
2023-02-22T07:05:45.384Z,98130.59
2023-02-22T07:08:13.295Z,98136.19
2023-02-22T07:10:41.229Z,98143.81
2023-02-22T07:13:09.434Z,98137.69
2023-02-22T07:15:37.330Z,98139.31
2023-02-22T07:18:05.778Z,98147.34
2023-02-22T07:20:34.516Z,98149.09
2023-02-22T07:23:02.225Z,98149.44
2023-02-22T07:25:29.966Z,98140.38
2023-02-22T07:27:57.602Z,98141.56
2023-02-22T07:30:34.365Z,98139.28
2023-02-22T07:33:08.002Z,98153.44
2023-02-22T07:35:46.549Z,98145.16
2023-02-22T07:38:17.037Z,98148.31
2023-02-22T07:40:45.936Z,98151.22
2023-02-22T07:43:21.007Z,98149.22
2023-02-22T07:45:52.422Z,98148.94
2023-02-22T07:48:23.674Z,98144.16
2023-02-22T07:50:51.571Z,98150.75
2023-02-22T07:53:28.612Z,98146.22
2023-02-22T07:56:02.748Z,98151.72
2023-02-22T07:58:32.603Z,98143.50
2023-02-22T08:01:03.773Z,98140.75
2023-02-22T08:03:36.821Z,98142.72
2023-02-22T08:06:07.256Z,98143.00
2023-02-22T08:08:34.722Z,98143.38
2023-02-22T08:11:02.975Z,98154.81
2023-02-22T08:13:30.369Z,98143.00
2023-02-22T08:15:58.054Z,98144.28
2023-02-22T08:18:26.274Z,98133.31
2023-02-22T08:20:54.539Z,98144.09
2023-02-22T08:23:27.077Z,98144.25
2023-02-22T08:25:55.576Z,98149.53
2023-02-22T08:28:24.563Z,98150.38
2023-02-22T08:30:52.600Z,98147.94
2023-02-22T08:33:21.645Z,98143.38
2023-02-22T08:35:50.016Z,98152.56
2023-02-22T08:38:31.173Z,98151.09
2023-02-22T08:40:58.997Z,98151.47
2023-02-22T08:43:26.396Z,98154.63
2023-02-22T08:45:57.194Z,98164.28
2023-02-22T08:48:24.960Z,98163.88
2023-02-22T08:50:52.531Z,98169.84
2023-02-22T08:53:19.921Z,98164.50
2023-02-22T08:55:47.603Z,98159.50
2023-02-22T08:58:15.237Z,98163.38
2023-02-22T09:00:44.853Z,98161.09
2023-02-22T09:03:15.647Z,98163.22
2023-02-22T09:05:44.975Z,98165.97
2023-02-22T09:08:12.842Z,98166.97
2023-02-22T09:10:41.110Z,98164.69
2023-02-22T09:13:09.129Z,98161.97
2023-02-22T09:15:37.056Z,98169.31
2023-02-22T09:18:10.925Z,98165.03
2023-02-22T09:20:38.768Z,98165.75
2023-02-22T09:23:07.435Z,98169.84
2023-02-22T09:25:35.834Z,98174.63
2023-02-22T09:28:03.230Z,98169.28
2023-02-22T09:30:36.695Z,98179.09
2023-02-22T09:33:31.934Z,98171.09
2023-02-22T09:36:00.972Z,98169.19
2023-02-22T09:38:30.248Z,98167.34
2023-02-22T09:41:07.952Z,98172.88
2023-02-22T09:44:07.660Z,98174.59
2023-02-22T09:46:42.187Z,98168.34
2023-02-22T09:49:30.017Z,98172.63
2023-02-22T09:52:30.723Z,98172.56
2023-02-22T09:55:16.925Z,98164.72
2023-02-22T09:57:46.330Z,98166.53
2023-02-22T10:00:21.604Z,98161.19
2023-02-22T10:03:13.604Z,98167.06
2023-02-22T10:05:48.277Z,98165.72
2023-02-22T10:08:19.453Z,98164.13
2023-02-22T10:10:58.573Z,98163.88
2023-02-22T10:13:34.892Z,98164.56
2023-02-22T10:16:14.402Z,98159.03
2023-02-22T10:19:02.198Z,98157.94
2023-02-22T10:21:47.933Z,98157.25
2023-02-22T10:24:39.785Z,98155.09
2023-02-22T10:27:28.421Z,98155.19
2023-02-22T10:30:23.359Z,98152.34
2023-02-22T10:33:22.063Z,98156.69
2023-02-22T10:35:53.779Z,98153.13
2023-02-22T10:38:23.691Z,98156.84
2023-02-22T10:41:09.725Z,98150.25
2023-02-22T10:43:43.312Z,98145.03
2023-02-22T10:46:21.311Z,98150.78
2023-02-22T10:48:54.713Z,98142.47
2023-02-22T10:51:22.505Z,98140.41
2023-02-22T10:54:15.210Z,98141.22
2023-02-22T10:56:55.913Z,98137.31
2023-02-22T10:59:42.645Z,98138.53
2023-02-22T11:02:27.751Z,98138.72
2023-02-22T11:04:59.259Z,98137.25
2023-02-22T11:07:35.784Z,98142.13
2023-02-22T11:10:09.395Z,98150.91
2023-02-22T11:12:42.466Z,98139.22
2023-02-22T11:15:22.389Z,98144.69
2023-02-22T11:17:53.980Z,98136.09
2023-02-22T11:20:35.320Z,98133.34
2023-02-22T11:23:05.694Z,98125.84
2023-02-22T11:25:38.580Z,98126.81
2023-02-22T11:28:20.333Z,98125.59
2023-02-22T11:30:52.311Z,98128.72
2023-02-22T11:33:24.368Z,98125.97
2023-02-22T11:36:02.553Z,98125.84
2023-02-22T11:38:33.614Z,98121.09
2023-02-22T11:41:23.081Z,98125.16
2023-02-22T11:43:54.490Z,98115.84
2023-02-22T11:46:27.160Z,98122.75
2023-02-22T11:49:10.639Z,98128.06
2023-02-22T11:52:08.263Z,98131.53
2023-02-22T11:55:03.153Z,98119.78
2023-02-22T11:57:54.011Z,98121.38
2023-02-22T12:00:54.094Z,98118.38
2023-02-22T12:03:39.222Z,98109.88
2023-02-22T12:06:40.549Z,98119.78
2023-02-22T12:09:40.848Z,98114.59
2023-02-22T12:12:36.414Z,98113.13
2023-02-22T12:15:18.761Z,98108.41
2023-02-22T12:18:18.391Z,98113.34
2023-02-22T12:21:00.083Z,98108.78
2023-02-22T12:24:04.356Z,98110.75
2023-02-22T12:27:01.321Z,98110.28
2023-02-22T12:29:40.547Z,98106.91
2023-02-22T12:32:29.331Z,98108.56
2023-02-22T12:35:10.015Z,98109.91
2023-02-22T12:38:05.161Z,98103.22
2023-02-22T12:41:08.989Z,98103.66
2023-02-22T12:44:04.286Z,98097.44
2023-02-22T12:46:40.488Z,98100.63
2023-02-22T12:49:49.773Z,98096.31
2023-02-22T12:52:44.039Z,98087.44
2023-02-22T12:55:25.882Z,98100.78
2023-02-22T12:58:26.109Z,98096.34
2023-02-22T13:01:14.642Z,98096.91
2023-02-22T13:03:44.421Z,98102.88
2023-02-22T13:06:45.592Z,98103.88
2023-02-22T13:09:45.455Z,98093.63
2023-02-22T13:12:27.746Z,98093.31
2023-02-22T13:15:29.298Z,98090.63
2023-02-22T13:18:25.862Z,98099.34
2023-02-22T13:21:29.479Z,98092.28
2023-02-22T13:24:26.782Z,98095.94
2023-02-22T13:27:06.616Z,98085.84
2023-02-22T13:29:47.358Z,98091.19
2023-02-22T13:32:27.568Z,98093.75
2023-02-22T13:35:12.642Z,98091.25
2023-02-22T13:38:11.937Z,98088.88
2023-02-22T13:41:23.930Z,98088.66
2023-02-22T13:44:04.244Z,98090.38
2023-02-22T13:46:49.535Z,98093.00
2023-02-22T13:49:35.688Z,98085.56
2023-02-22T13:52:19.684Z,98093.81
2023-02-22T13:54:58.269Z,98090.19
2023-02-22T13:57:38.377Z,98087.41
2023-02-22T14:00:21.000Z,98084.09
2023-02-22T14:03:13.081Z,98086.59
2023-02-22T14:05:46.386Z,98100.16
2023-02-22T14:08:19.726Z,98092.81
2023-02-22T14:10:50.898Z,98090.78
2023-02-22T14:13:26.821Z,98091.22
2023-02-22T14:16:00.637Z,98092.69
2023-02-22T14:18:36.187Z,98090.84
2023-02-22T14:21:22.236Z,98097.66
2023-02-22T14:23:52.035Z,98092.22
2023-02-22T14:26:35.839Z,98091.31
2023-02-22T14:29:09.572Z,98091.47
2023-02-22T14:31:52.210Z,98084.28
2023-02-22T14:34:39.609Z,98086.06
2023-02-22T14:37:17.477Z,98091.44
2023-02-22T14:39:51.344Z,98088.69
2023-02-22T14:42:28.031Z,98091.66
2023-02-22T14:45:14.605Z,98088.19
2023-02-22T14:48:11.817Z,98087.03
2023-02-22T14:50:45.311Z,98095.16
2023-02-22T14:53:20.158Z,98089.78
2023-02-22T14:55:56.694Z,98090.13
2023-02-22T14:58:41.680Z,98097.13
2023-02-22T15:01:47.336Z,98102.00
2023-02-22T15:04:33.798Z,98090.31
2023-02-22T15:07:09.622Z,98099.47
2023-02-22T15:09:37.794Z,98094.16
2023-02-22T15:12:05.382Z,98092.53
2023-02-22T15:14:39.147Z,98088.41
2023-02-22T15:17:24.728Z,98089.75
2023-02-22T15:19:55.282Z,98084.38
2023-02-22T15:22:28.300Z,98091.84
2023-02-22T15:25:06.678Z,98092.94
2023-02-22T15:27:37.448Z,98090.38
2023-02-22T15:30:33.091Z,98091.56
2023-02-22T15:33:34.242Z,98086.59
2023-02-22T15:36:02.065Z,98090.03
2023-02-22T15:38:31.243Z,98089.50
2023-02-22T15:41:13.830Z,98094.94
2023-02-22T15:43:41.838Z,98095.78
2023-02-22T15:46:09.979Z,98093.91
2023-02-22T15:48:41.327Z,98088.34
2023-02-22T15:51:15.566Z,98096.91
2023-02-22T15:53:49.696Z,98091.34
2023-02-22T15:56:30.153Z,98084.00
2023-02-22T15:59:13.891Z,98088.09
2023-02-22T16:01:45.978Z,98091.50
2023-02-22T16:04:27.466Z,98093.25
2023-02-22T16:07:17.238Z,98088.53
2023-02-22T16:09:52.230Z,98093.22
2023-02-22T16:12:24.768Z,98094.97
2023-02-22T16:14:52.664Z,98098.44
2023-02-22T16:18:02.296Z,98100.38
2023-02-22T16:20:30.533Z,98100.84
2023-02-22T16:22:58.557Z,98101.16
2023-02-22T16:25:35.672Z,98107.59
2023-02-22T16:28:26.116Z,98103.22
2023-02-22T16:31:00.358Z,98095.50
2023-02-22T16:33:34.033Z,98108.53
2023-02-22T16:36:08.257Z,98114.91
2023-02-22T16:38:38.601Z,98118.53
2023-02-22T16:41:07.792Z,98118.53
2023-02-22T16:43:36.117Z,98121.88
2023-02-22T16:46:07.090Z,98115.16
2023-02-22T16:48:38.392Z,98119.00
2023-02-22T16:51:26.738Z,98119.47
2023-02-22T16:53:56.230Z,98119.75
2023-02-22T16:56:31.024Z,98113.31
2023-02-22T16:59:08.506Z,98112.78
2023-02-22T17:01:35.931Z,98119.59
2023-02-22T17:04:14.592Z,98118.34
2023-02-22T17:06:41.966Z,98121.94
2023-02-22T17:09:10.705Z,98116.69
2023-02-22T17:11:39.351Z,98114.00
2023-02-22T17:14:07.086Z,98122.38
2023-02-22T17:16:34.657Z,98118.84
2023-02-22T17:19:05.083Z,98123.28
2023-02-22T17:21:32.464Z,98120.03
2023-02-22T17:24:00.111Z,98118.44
2023-02-22T17:26:28.352Z,98122.91
2023-02-22T17:28:56.019Z,98125.50
2023-02-22T17:31:29.304Z,98126.47
2023-02-22T17:34:04.973Z,98125.06
2023-02-22T17:36:36.517Z,98125.91
2023-02-22T17:39:06.139Z,98120.84
2023-02-22T17:41:33.500Z,98114.16
2023-02-22T17:44:01.195Z,98121.44
2023-02-22T17:46:28.731Z,98127.75
2023-02-22T17:48:56.474Z,98121.50
2023-02-22T17:51:26.494Z,98125.28
2023-02-22T17:53:54.213Z,98124.06
2023-02-22T17:56:22.075Z,98121.75
2023-02-22T17:58:53.949Z,98124.50
2023-02-22T18:01:32.291Z,98121.91
2023-02-22T18:04:03.199Z,98124.50
2023-02-22T18:06:33.819Z,98130.75
2023-02-22T18:09:10.250Z,98123.81
2023-02-22T18:11:40.137Z,98126.41
2023-02-22T18:14:10.151Z,98129.19
2023-02-22T18:16:39.545Z,98127.59
2023-02-22T18:19:07.418Z,98128.56
2023-02-22T18:21:34.939Z,98132.00
2023-02-22T18:24:04.239Z,98128.66
2023-02-22T18:26:31.819Z,98126.22
2023-02-22T18:29:01.294Z,98129.75
2023-02-22T18:31:29.262Z,98126.34
2023-02-22T18:33:57.716Z,98123.94
2023-02-22T18:36:25.760Z,98127.44
2023-02-22T18:38:55.302Z,98120.75
2023-02-22T18:41:25.565Z,98124.41
2023-02-22T18:43:55.717Z,98130.50
2023-02-22T18:46:25.606Z,98128.00
2023-02-22T18:48:56.488Z,98128.22
2023-02-22T18:51:26.251Z,98128.13
2023-02-22T18:54:00.780Z,98131.34
2023-02-22T18:56:30.366Z,98122.50
2023-02-22T18:59:01.583Z,98124.09
2023-02-22T19:01:31.338Z,98120.28
2023-02-22T19:04:01.260Z,98126.06
2023-02-22T19:06:28.643Z,98125.13
2023-02-22T19:08:56.300Z,98127.91
2023-02-22T19:11:25.227Z,98126.06
2023-02-22T19:13:57.234Z,98118.06
2023-02-22T19:16:27.476Z,98125.50
2023-02-22T19:18:59.318Z,98130.97
2023-02-22T19:21:29.991Z,98120.06
2023-02-22T19:23:57.745Z,98122.66
2023-02-22T19:26:27.759Z,98128.19
2023-02-22T19:28:58.849Z,98119.78
2023-02-22T19:31:31.560Z,98119.31
2023-02-22T19:34:11.609Z,98126.50
2023-02-22T19:36:45.985Z,98123.06
2023-02-22T19:39:15.627Z,98126.56
2023-02-22T19:41:43.743Z,98122.63
2023-02-22T19:44:12.405Z,98130.41
2023-02-22T19:46:40.697Z,98127.19
2023-02-22T19:49:08.621Z,98126.56
2023-02-22T19:51:36.212Z,98128.50
2023-02-22T19:54:08.281Z,98128.81
2023-02-22T19:56:36.533Z,98128.19
2023-02-22T19:59:12.864Z,98129.47
2023-02-22T20:01:44.501Z,98139.13
2023-02-22T20:04:18.360Z,98127.09
2023-02-22T20:06:52.047Z,98135.78
2023-02-22T20:09:44.517Z,98137.72
2023-02-22T20:12:12.080Z,98129.44
2023-02-22T20:14:40.093Z,98135.31
2023-02-22T20:17:08.158Z,98142.44
2023-02-22T20:19:37.754Z,98137.34
2023-02-22T20:22:05.304Z,98138.13
2023-02-22T20:24:32.992Z,98133.16
2023-02-22T20:27:00.377Z,98133.09
2023-02-22T20:29:31.007Z,98128.75
2023-02-22T20:32:01.463Z,98134.91
2023-02-22T20:34:32.573Z,98130.66
2023-02-22T20:37:01.465Z,98133.38
2023-02-22T20:39:29.826Z,98138.69
2023-02-22T20:42:00.641Z,98132.59
2023-02-22T20:44:28.594Z,98137.91
2023-02-22T20:46:56.087Z,98137.34
2023-02-22T20:49:23.796Z,98134.91
2023-02-22T20:51:51.240Z,98137.84
2023-02-22T20:54:18.933Z,98143.00
2023-02-22T20:56:47.750Z,98143.19
2023-02-22T20:59:18.892Z,98139.94
2023-02-22T21:01:49.461Z,98145.84
2023-02-22T21:04:17.954Z,98137.41
2023-02-22T21:06:46.814Z,98138.41
2023-02-22T21:09:21.676Z,98145.56
2023-02-22T21:11:49.293Z,98141.50
2023-02-22T21:14:20.851Z,98145.91
2023-02-22T21:16:51.965Z,98135.13
2023-02-22T21:19:26.587Z,98146.91
2023-02-22T21:21:56.527Z,98146.00
2023-02-22T21:24:26.744Z,98145.22
2023-02-22T21:26:55.769Z,98144.59
2023-02-22T21:29:24.662Z,98142.31
2023-02-22T21:31:52.164Z,98136.25
2023-02-22T21:34:20.177Z,98128.72
2023-02-22T21:36:47.490Z,98128.94
2023-02-22T21:39:19.297Z,98125.69
2023-02-22T21:41:49.719Z,98128.16
2023-02-22T21:44:18.946Z,98134.34
2023-02-22T21:46:50.776Z,98133.97
2023-02-22T21:49:23.301Z,98125.66
2023-02-22T21:51:52.601Z,98126.16
2023-02-22T21:54:20.803Z,98112.94
2023-02-22T21:56:48.599Z,98119.69
2023-02-22T21:59:20.242Z,98120.63
2023-02-22T22:01:51.458Z,98111.53
2023-02-22T22:04:22.763Z,98116.69
2023-02-22T22:06:53.556Z,98113.81
2023-02-22T22:09:23.729Z,98112.13
2023-02-22T22:11:58.412Z,98114.31
2023-02-22T22:14:27.390Z,98108.41
2023-02-22T22:17:00.278Z,98103.31
2023-02-22T22:19:30.576Z,98106.88
2023-02-22T22:21:58.708Z,98105.91
2023-02-22T22:24:29.650Z,98106.19
2023-02-22T22:26:57.000Z,98101.72
2023-02-22T22:29:28.626Z,98104.63
2023-02-22T22:31:56.813Z,98103.44
2023-02-22T22:34:24.595Z,98096.63
2023-02-22T22:36:51.936Z,98102.75
2023-02-22T22:39:21.216Z,98103.34
2023-02-22T22:41:48.771Z,98108.22
2023-02-22T22:44:22.380Z,98104.16
2023-02-22T22:46:53.826Z,98102.56
2023-02-22T22:49:23.776Z,98110.78
2023-02-22T22:51:51.438Z,98095.25
2023-02-22T22:54:19.147Z,98101.31
2023-02-22T22:56:46.588Z,98095.41
2023-02-22T22:59:15.362Z,98105.97
2023-02-22T23:01:46.605Z,98104.22
2023-02-22T23:04:17.021Z,98100.34
2023-02-22T23:06:54.355Z,98107.53
2023-02-22T23:09:31.681Z,98102.63
2023-02-22T23:12:09.267Z,98100.69
2023-02-22T23:14:44.161Z,98100.41
2023-02-22T23:17:26.890Z,98097.34
2023-02-22T23:19:55.014Z,98098.19
2023-02-22T23:22:22.396Z,98108.84
2023-02-22T23:24:50.037Z,98101.47
2023-02-22T23:27:19.076Z,98095.72
2023-02-22T23:29:47.164Z,98098.88
2023-02-22T23:32:14.727Z,98104.66
2023-02-22T23:34:42.398Z,98104.84
2023-02-22T23:37:10.877Z,98101.56
2023-02-22T23:39:38.993Z,98104.03
2023-02-22T23:42:09.001Z,98098.03
2023-02-22T23:44:36.693Z,98101.97
2023-02-22T23:47:04.561Z,98103.25
2023-02-22T23:49:38.658Z,98108.00
2023-02-22T23:52:08.611Z,98106.31
2023-02-22T23:54:43.849Z,98111.34
2023-02-22T23:57:11.408Z,98109.53
2023-02-22T23:59:40.493Z,98114.81
